South Wilmington, Illinois
Current Conditions -  °F | °C
As of 2:15 PM on Thursday 29 Jan 2015 (Local Time) from KC09 Reporting Station
Overcast Overcast  
Wind Chill: 26°   Ceiling: 2000
Heat Index: 34°   Visibility: 7mi
Dew Point: 31°   Wind: 10mph
Humidity: 87%   Direction: 320°NW
Pressure: 30.03"   Gusts: 17mph
Location:  41.17°N, 88.28°W
Report Text: KC09 292015Z AUTO 32009G15KT 7SM OVC020 01/M01 A3003 RMK AO2 T00121008
Loading
Personal Weather Stations






























Interactive Weather Map New forecast layout! Learn more

10-Day Weather Forecast

Advertisements
Track Severe Weather on mobile